Terminal Aerodrome Forecast
Issued by NWS Wilmington, NC

Home | Current Version | Previous Version | Text Only | Print | Product List | Glossary On
Versions: 1 2 3 4 5 6 7 8 9 10 11 12 13 14 15 16 17 18 19 20
108
FTUS42 KILM 210917 CCA
TAFMYR
TAF COR
KMYR 210917Z 2109/2206 26004KT P6SM SCT002 SCT025 BKN150
      TEMPO 2109/2112 SCT002 BKN025
     FM211400 19009KT P6SM VCSH SCT025 BKN100
     FM211900 18011KT P6SM FEW030 SCT100
     FM220000 19007KT P6SM SCT100 BKN250=

USA.gov is the U.S. government's official web portal to all federal, state and local government web resources and services.